createdAt,value
2022-10-23T00:04:45.086Z,24.80
2022-10-23T00:09:46.768Z,29.42
2022-10-23T00:14:51.548Z,21.63
2022-10-23T00:19:53.384Z,20.80
2022-10-23T00:24:57.579Z,22.15
2022-10-23T00:30:01.643Z,33.88
2022-10-23T00:35:08.031Z,25.42
2022-10-23T00:40:13.677Z,28.58
2022-10-23T00:45:31.253Z,28.80
2022-10-23T00:50:35.347Z,23.37
2022-10-23T00:55:41.253Z,32.70
2022-10-23T01:00:45.715Z,22.52
2022-10-23T01:05:52.087Z,20.92
2022-10-23T01:11:27.567Z,23.77
2022-10-23T01:16:56.197Z,21.90
2022-10-23T01:22:16.805Z,28.25
2022-10-23T01:27:33.377Z,28.98
2022-10-23T01:32:44.921Z,39.58
2022-10-23T01:37:53.956Z,19.48
2022-10-23T01:42:59.934Z,28.05
2022-10-23T01:48:07.745Z,25.60
2022-10-23T01:53:14.333Z,14.95
2022-10-23T01:58:21.171Z,16.00
2022-10-23T02:03:27.404Z,26.65
2022-10-23T02:08:31.569Z,16.88
2022-10-23T02:13:55.732Z,30.60
2022-10-23T02:19:07.436Z,20.63
2022-10-23T02:24:15.546Z,36.30
2022-10-23T02:29:25.997Z,28.73
2022-10-23T02:34:29.855Z,31.77
2022-10-23T02:39:36.926Z,30.60
2022-10-23T02:44:53.742Z,37.97
2022-10-23T02:49:57.719Z,39.88
2022-10-23T02:55:11.638Z,31.60
2022-10-23T03:00:23.613Z,46.83
2022-10-23T03:05:34.547Z,32.17
2022-10-23T03:10:41.717Z,22.55
2022-10-23T03:15:46.722Z,31.73
2022-10-23T03:20:53.698Z,32.83
2022-10-23T03:25:59.723Z,32.67
2022-10-23T03:31:15.248Z,31.97
2022-10-23T03:36:21.454Z,20.20
2022-10-23T03:41:28.846Z,27.50
2022-10-23T03:46:30.608Z,45.13
2022-10-23T03:51:37.045Z,35.50
2022-10-23T03:56:41.470Z,29.23
2022-10-23T04:01:44.818Z,20.17
2022-10-23T04:06:48.980Z,27.40
2022-10-23T04:11:54.243Z,23.90
2022-10-23T04:16:56.912Z,25.47
2022-10-23T04:21:59.760Z,43.90
2022-10-23T04:27:04.290Z,22.23
2022-10-23T04:32:08.351Z,34.17
2022-10-23T04:37:12.534Z,35.20
2022-10-23T04:42:14.484Z,36.10
2022-10-23T04:47:20.476Z,32.47
2022-10-23T04:52:33.623Z,21.20
2022-10-23T04:58:04.611Z,37.37
2022-10-23T05:03:07.242Z,45.13
2022-10-23T05:08:17.066Z,31.50
2022-10-23T05:13:41.558Z,24.93
2022-10-23T05:18:47.651Z,48.00
2022-10-23T05:23:49.883Z,40.60
2022-10-23T05:28:51.798Z,48.00
2022-10-23T05:33:55.419Z,56.10
2022-10-23T05:39:00.522Z,49.47
2022-10-23T05:44:05.650Z,58.13
2022-10-23T05:49:26.232Z,58.10
2022-10-23T05:55:09.447Z,45.77
2022-10-23T06:00:25.303Z,51.93
2022-10-23T06:05:52.386Z,61.63
2022-10-23T06:10:59.233Z,54.30
2022-10-23T06:16:11.732Z,57.53
2022-10-23T06:21:15.278Z,66.30
2022-10-23T06:26:19.586Z,63.33
2022-10-23T06:31:46.198Z,66.67
2022-10-23T06:36:48.074Z,50.13
2022-10-23T06:42:05.700Z,59.53
2022-10-23T06:47:33.538Z,61.33
2022-10-23T06:53:01.628Z,59.43
2022-10-23T06:58:10.614Z,56.80
2022-10-23T07:03:23.026Z,67.93
2022-10-23T07:08:25.032Z,61.57
2022-10-23T07:13:31.938Z,55.23
2022-10-23T07:18:46.846Z,61.15
2022-10-23T07:24:04.236Z,56.67
2022-10-23T07:29:11.698Z,61.97
2022-10-23T07:34:13.690Z,53.60
2022-10-23T07:39:19.039Z,48.03
2022-10-23T07:44:27.851Z,50.00
2022-10-23T07:49:30.905Z,40.03
2022-10-23T07:54:33.159Z,42.53
2022-10-23T07:59:39.014Z,41.08
2022-10-23T08:04:51.411Z,41.03
2022-10-23T08:10:01.441Z,37.80
2022-10-23T08:15:09.893Z,35.45
2022-10-23T08:20:25.987Z,32.55
2022-10-23T08:25:33.929Z,30.05
2022-10-23T08:30:38.503Z,28.63
2022-10-23T08:35:42.830Z,31.08
2022-10-23T08:40:48.659Z,33.08
2022-10-23T08:46:13.161Z,28.30
2022-10-23T08:51:44.817Z,26.88
2022-10-23T08:56:51.497Z,28.85
2022-10-23T09:02:01.297Z,25.95
2022-10-23T09:07:20.722Z,26.88
2022-10-23T09:12:26.390Z,29.83
2022-10-23T09:17:31.393Z,23.83
2022-10-23T09:22:33.366Z,21.55
2022-10-23T09:27:40.360Z,24.85
2022-10-23T09:32:43.582Z,20.48
2022-10-23T09:37:53.255Z,21.52
2022-10-23T09:43:03.922Z,24.75
2022-10-23T09:48:06.777Z,19.38
2022-10-23T09:53:18.870Z,18.17
2022-10-23T09:58:28.300Z,17.83
2022-10-23T10:03:37.488Z,22.42
2022-10-23T10:08:49.525Z,16.45
2022-10-23T10:14:08.396Z,18.67
2022-10-23T10:19:17.188Z,15.48
2022-10-23T10:24:28.861Z,16.45
2022-10-23T10:29:57.801Z,13.82
2022-10-23T10:35:26.502Z,11.77
2022-10-23T10:40:38.304Z,17.80
2022-10-23T10:45:47.911Z,11.70
2022-10-23T10:50:53.373Z,13.20
2022-10-23T10:56:07.561Z,14.00
2022-10-23T11:01:29.158Z,13.95
2022-10-23T11:06:36.088Z,13.40
2022-10-23T11:11:40.888Z,10.55
2022-10-23T11:16:46.924Z,11.20
2022-10-23T11:22:07.026Z,12.95
2022-10-23T11:27:28.506Z,15.68
2022-10-23T11:32:51.948Z,12.82
2022-10-23T11:38:11.958Z,13.75
2022-10-23T11:43:14.145Z,8.80
2022-10-23T11:48:21.472Z,12.48
2022-10-23T11:53:32.630Z,10.40
2022-10-23T11:58:50.954Z,10.07
2022-10-23T12:03:58.800Z,12.55
2022-10-23T12:09:31.584Z,12.18
2022-10-23T12:14:44.414Z,10.20
2022-10-23T12:19:50.221Z,10.20
2022-10-23T12:25:04.462Z,8.98
2022-10-23T12:30:19.288Z,10.63
2022-10-23T12:35:24.307Z,9.93
2022-10-23T12:40:30.141Z,14.15
2022-10-23T12:45:40.709Z,10.75
2022-10-23T12:50:50.685Z,8.93
2022-10-23T13:01:06.447Z,9.80
2022-10-23T13:06:13.115Z,9.60
2022-10-23T13:11:21.763Z,9.07
2022-10-23T13:16:28.894Z,11.15
2022-10-23T13:21:30.956Z,12.45
2022-10-23T13:26:45.283Z,11.95
2022-10-23T13:31:49.812Z,7.95
2022-10-23T13:37:20.614Z,7.72
2022-10-23T13:42:22.412Z,10.45
2022-10-23T13:47:26.862Z,11.05
2022-10-23T13:52:28.668Z,8.73
2022-10-23T13:57:32.791Z,11.52
2022-10-23T14:02:34.654Z,12.02
2022-10-23T14:07:36.582Z,9.50
2022-10-23T14:12:43.333Z,11.15
2022-10-23T14:17:49.483Z,10.30
2022-10-23T14:22:54.512Z,9.00
2022-10-23T14:27:56.580Z,8.23
2022-10-23T14:33:01.871Z,12.25
2022-10-23T14:38:05.798Z,11.18
2022-10-23T14:43:07.856Z,13.35
2022-10-23T14:48:15.960Z,8.57
2022-10-23T14:53:20.314Z,15.13
2022-10-23T14:58:24.632Z,9.27
2022-10-23T15:03:31.933Z,9.10
2022-10-23T15:08:34.192Z,9.18
2022-10-23T15:13:38.627Z,14.25
2022-10-23T15:18:42.510Z,11.55
2022-10-23T15:23:47.498Z,10.80
2022-10-23T15:28:54.946Z,9.45
2022-10-23T15:33:57.785Z,13.45
2022-10-23T15:39:00.866Z,12.20
2022-10-23T15:44:04.684Z,6.65
2022-10-23T15:49:08.546Z,8.77
2022-10-23T15:54:16.646Z,12.55
2022-10-23T15:59:25.357Z,11.35
2022-10-23T16:04:29.914Z,8.23
2022-10-23T16:09:38.770Z,10.48
2022-10-23T16:14:41.006Z,8.65
2022-10-23T16:19:42.911Z,9.55
2022-10-23T16:24:44.776Z,11.98
2022-10-23T16:29:53.156Z,9.65
2022-10-23T16:34:58.894Z,10.88
2022-10-23T16:40:05.190Z,9.65
2022-10-23T16:45:25.492Z,9.00
2022-10-23T16:50:30.286Z,10.60
2022-10-23T16:55:34.787Z,5.90
2022-10-23T17:00:38.881Z,6.60
2022-10-23T17:05:45.051Z,11.50
2022-10-23T17:10:52.145Z,10.95
2022-10-23T17:16:28.626Z,18.77
2022-10-23T17:21:41.463Z,8.50
2022-10-23T17:26:45.534Z,8.20
2022-10-23T17:31:51.116Z,6.80
2022-10-23T17:36:54.710Z,7.97
2022-10-23T17:42:00.987Z,6.53
2022-10-23T17:47:05.065Z,7.82
2022-10-23T17:52:14.465Z,6.63
2022-10-23T17:57:16.504Z,6.38
2022-10-23T18:02:23.651Z,6.75
2022-10-23T18:07:26.661Z,10.32
2022-10-23T18:12:31.627Z,11.50
2022-10-23T18:17:33.474Z,7.70
2022-10-23T18:22:38.723Z,8.75
2022-10-23T18:27:41.624Z,7.90
2022-10-23T18:32:47.294Z,9.57
2022-10-23T18:37:52.537Z,6.32
2022-10-23T18:42:56.463Z,7.20
2022-10-23T18:47:58.501Z,7.43
2022-10-23T18:53:06.380Z,10.40
2022-10-23T18:58:08.416Z,5.57
2022-10-23T19:03:12.011Z,5.03
2022-10-23T19:08:13.931Z,7.65
2022-10-23T19:13:17.463Z,9.30
2022-10-23T19:18:24.109Z,6.03
2022-10-23T19:23:30.519Z,12.85
2022-10-23T19:28:37.636Z,8.73
2022-10-23T19:33:42.146Z,10.80
2022-10-23T19:38:49.308Z,5.22
2022-10-23T19:43:51.159Z,9.25
2022-10-23T19:48:54.859Z,10.90
2022-10-23T19:53:57.718Z,9.77
2022-10-23T19:58:59.579Z,8.23
2022-10-23T20:04:01.630Z,12.35
2022-10-23T20:09:11.658Z,6.07
2022-10-23T20:14:17.171Z,3.17
2022-10-23T20:19:28.719Z,8.07
2022-10-23T20:24:30.483Z,6.00
2022-10-23T20:29:32.570Z,5.32
2022-10-23T20:34:39.456Z,7.40
2022-10-23T20:39:41.420Z,6.32
2022-10-23T20:44:45.295Z,5.80
2022-10-23T20:49:51.237Z,4.35
2022-10-23T20:54:55.291Z,5.68
2022-10-23T21:00:00.731Z,6.72
2022-10-23T21:05:07.798Z,7.07
2022-10-23T21:10:09.733Z,6.07
2022-10-23T21:15:11.925Z,6.30
2022-10-23T21:20:18.564Z,6.80
2022-10-23T21:25:20.374Z,8.02
2022-10-23T21:30:24.966Z,8.13
2022-10-23T21:35:30.146Z,6.75
2022-10-23T21:40:32.086Z,4.95
2022-10-23T21:45:35.439Z,5.05
2022-10-23T21:50:37.216Z,7.75
2022-10-23T21:55:39.312Z,10.88
2022-10-23T22:00:45.594Z,6.45
2022-10-23T22:05:47.444Z,10.63
2022-10-23T22:10:52.425Z,7.95
2022-10-23T22:15:58.685Z,9.13
2022-10-23T22:21:05.942Z,10.07
2022-10-23T22:26:25.186Z,5.85
2022-10-23T22:31:29.518Z,9.13
2022-10-23T22:36:37.757Z,6.22
2022-10-23T22:41:46.616Z,6.30
2022-10-23T22:46:53.259Z,9.82
2022-10-23T22:51:55.023Z,8.05
2022-10-23T22:57:00.617Z,9.23
2022-10-23T23:02:08.343Z,5.65
2022-10-23T23:07:12.980Z,8.43
2022-10-23T23:12:15.521Z,9.80
2022-10-23T23:17:17.341Z,11.82
2022-10-23T23:22:19.138Z,9.13
2022-10-23T23:27:20.950Z,7.10
2022-10-23T23:32:25.035Z,6.30
2022-10-23T23:37:26.859Z,6.53
2022-10-23T23:42:34.502Z,5.97
2022-10-23T23:47:41.610Z,6.30
2022-10-23T23:52:43.725Z,6.22
2022-10-23T23:57:57.870Z,8.10
